sensor_id;sensor_type;location;lat;lon;timestamp;temperature;humidity
49042;DHT22;34859;51.608;11.462;2023-08-07T00:00:24;15.30;99.90
49042;DHT22;34859;51.608;11.462;2023-08-07T00:02:49;15.30;99.90
49042;DHT22;34859;51.608;11.462;2023-08-07T00:05:17;15.30;99.90
49042;DHT22;34859;51.608;11.462;2023-08-07T00:07:43;15.30;99.90
49042;DHT22;34859;51.608;11.462;2023-08-07T00:10:08;15.20;99.90
49042;DHT22;34859;51.608;11.462;2023-08-07T00:12:34;15.20;99.90
49042;DHT22;34859;51.608;11.462;2023-08-07T00:15:00;15.20;99.90
49042;DHT22;34859;51.608;11.462;2023-08-07T00:17:31;15.20;99.90
49042;DHT22;34859;51.608;11.462;2023-08-07T00:19:57;15.20;99.90
49042;DHT22;34859;51.608;11.462;2023-08-07T00:22:23;15.20;99.90
49042;DHT22;34859;51.608;11.462;2023-08-07T00:24:49;15.20;99.90
49042;DHT22;34859;51.608;11.462;2023-08-07T00:27:14;15.20;99.90
49042;DHT22;34859;51.608;11.462;2023-08-07T00:29:40;15.10;99.90
49042;DHT22;34859;51.608;11.462;2023-08-07T00:32:09;15.10;99.90
49042;DHT22;34859;51.608;11.462;2023-08-07T00:34:34;15.10;99.90
49042;DHT22;34859;51.608;11.462;2023-08-07T00:37:00;15.10;99.90
49042;DHT22;34859;51.608;11.462;2023-08-07T00:39:31;15.00;99.90
49042;DHT22;34859;51.608;11.462;2023-08-07T00:41:57;15.10;99.90
49042;DHT22;34859;51.608;11.462;2023-08-07T00:44:23;15.00;99.90
49042;DHT22;34859;51.608;11.462;2023-08-07T00:46:49;15.00;99.90
49042;DHT22;34859;51.608;11.462;2023-08-07T00:49:15;15.00;99.90
49042;DHT22;34859;51.608;11.462;2023-08-07T00:51:41;14.90;99.90
49042;DHT22;34859;51.608;11.462;2023-08-07T00:54:07;14.90;99.90
49042;DHT22;34859;51.608;11.462;2023-08-07T00:56:39;14.90;99.90
49042;DHT22;34859;51.608;11.462;2023-08-07T00:59:07;14.90;99.90
49042;DHT22;34859;51.608;11.462;2023-08-07T01:01:33;14.90;99.90
49042;DHT22;34859;51.608;11.462;2023-08-07T01:03:59;14.90;99.90
49042;DHT22;34859;51.608;11.462;2023-08-07T01:06:24;14.90;99.90
49042;DHT22;34859;51.608;11.462;2023-08-07T01:08:50;14.90;99.90
49042;DHT22;34859;51.608;11.462;2023-08-07T01:11:42;14.90;99.90
49042;DHT22;34859;51.608;11.462;2023-08-07T01:14:16;14.90;99.90
49042;DHT22;34859;51.608;11.462;2023-08-07T01:16:48;14.90;99.90
49042;DHT22;34859;51.608;11.462;2023-08-07T01:19:24;14.90;99.90
49042;DHT22;34859;51.608;11.462;2023-08-07T01:22:03;14.90;99.90
49042;DHT22;34859;51.608;11.462;2023-08-07T01:24:29;14.90;99.90
49042;DHT22;34859;51.608;11.462;2023-08-07T01:26:57;14.90;99.90
49042;DHT22;34859;51.608;11.462;2023-08-07T01:29:30;14.90;99.90
49042;DHT22;34859;51.608;11.462;2023-08-07T01:31:58;14.90;99.90
49042;DHT22;34859;51.608;11.462;2023-08-07T01:34:25;14.80;99.90
49042;DHT22;34859;51.608;11.462;2023-08-07T01:36:52;14.80;99.90
49042;DHT22;34859;51.608;11.462;2023-08-07T01:39:21;14.90;99.90
49042;DHT22;34859;51.608;11.462;2023-08-07T01:41:49;14.90;99.90
49042;DHT22;34859;51.608;11.462;2023-08-07T01:44:17;14.90;99.90
49042;DHT22;34859;51.608;11.462;2023-08-07T01:46:43;14.90;99.90
49042;DHT22;34859;51.608;11.462;2023-08-07T01:49:10;14.90;99.90
49042;DHT22;34859;51.608;11.462;2023-08-07T01:51:37;14.90;99.90
49042;DHT22;34859;51.608;11.462;2023-08-07T01:54:03;14.90;99.90
49042;DHT22;34859;51.608;11.462;2023-08-07T01:56:30;14.90;99.90
49042;DHT22;34859;51.608;11.462;2023-08-07T01:58:57;15.00;99.90
49042;DHT22;34859;51.608;11.462;2023-08-07T02:01:24;15.00;99.90
49042;DHT22;34859;51.608;11.462;2023-08-07T02:03:50;15.00;99.90
49042;DHT22;34859;51.608;11.462;2023-08-07T02:06:17;14.90;99.90
49042;DHT22;34859;51.608;11.462;2023-08-07T02:08:44;15.00;99.90
49042;DHT22;34859;51.608;11.462;2023-08-07T02:11:17;15.00;99.90
49042;DHT22;34859;51.608;11.462;2023-08-07T02:14:02;15.00;99.90
49042;DHT22;34859;51.608;11.462;2023-08-07T02:16:46;15.00;99.90
49042;DHT22;34859;51.608;11.462;2023-08-07T02:19:13;15.00;99.90
49042;DHT22;34859;51.608;11.462;2023-08-07T02:21:39;14.90;99.90
49042;DHT22;34859;51.608;11.462;2023-08-07T02:24:07;14.90;99.90
49042;DHT22;34859;51.608;11.462;2023-08-07T02:26:33;14.90;99.90
49042;DHT22;34859;51.608;11.462;2023-08-07T02:29:00;14.90;99.90
49042;DHT22;34859;51.608;11.462;2023-08-07T02:31:28;14.90;99.90
49042;DHT22;34859;51.608;11.462;2023-08-07T02:33:55;14.80;99.90
49042;DHT22;34859;51.608;11.462;2023-08-07T02:36:21;14.80;99.90
49042;DHT22;34859;51.608;11.462;2023-08-07T02:38:49;14.80;99.90
49042;DHT22;34859;51.608;11.462;2023-08-07T02:41:17;14.80;99.90
49042;DHT22;34859;51.608;11.462;2023-08-07T02:43:43;14.80;99.90
49042;DHT22;34859;51.608;11.462;2023-08-07T02:46:10;14.80;99.90
49042;DHT22;34859;51.608;11.462;2023-08-07T02:48:37;14.80;99.90
49042;DHT22;34859;51.608;11.462;2023-08-07T02:51:05;14.80;99.90
49042;DHT22;34859;51.608;11.462;2023-08-07T02:53:51;14.80;99.90
49042;DHT22;34859;51.608;11.462;2023-08-07T02:56:18;14.80;99.90
49042;DHT22;34859;51.608;11.462;2023-08-07T02:58:44;14.80;99.90
49042;DHT22;34859;51.608;11.462;2023-08-07T03:01:11;14.70;99.90
49042;DHT22;34859;51.608;11.462;2023-08-07T03:03:38;14.70;99.90
49042;DHT22;34859;51.608;11.462;2023-08-07T03:06:04;14.70;99.90
49042;DHT22;34859;51.608;11.462;2023-08-07T03:08:31;14.60;99.90
49042;DHT22;34859;51.608;11.462;2023-08-07T03:10:57;14.60;99.90
49042;DHT22;34859;51.608;11.462;2023-08-07T03:13:24;14.60;99.90
49042;DHT22;34859;51.608;11.462;2023-08-07T03:15:58;14.60;99.90
49042;DHT22;34859;51.608;11.462;2023-08-07T03:18:25;14.50;99.90
49042;DHT22;34859;51.608;11.462;2023-08-07T03:20:51;14.50;99.90
49042;DHT22;34859;51.608;11.462;2023-08-07T03:23:18;14.50;99.90
49042;DHT22;34859;51.608;11.462;2023-08-07T03:25:45;14.50;99.90
49042;DHT22;34859;51.608;11.462;2023-08-07T03:28:39;14.50;99.90
49042;DHT22;34859;51.608;11.462;2023-08-07T03:31:10;14.50;99.90
49042;DHT22;34859;51.608;11.462;2023-08-07T03:33:39;14.50;99.90
49042;DHT22;34859;51.608;11.462;2023-08-07T03:36:07;14.50;99.90
49042;DHT22;34859;51.608;11.462;2023-08-07T03:38:35;14.40;99.90
49042;DHT22;34859;51.608;11.462;2023-08-07T03:41:01;14.40;99.90
49042;DHT22;34859;51.608;11.462;2023-08-07T03:43:28;14.40;99.90
49042;DHT22;34859;51.608;11.462;2023-08-07T03:45:55;14.40;99.90
49042;DHT22;34859;51.608;11.462;2023-08-07T03:48:24;14.40;99.90
49042;DHT22;34859;51.608;11.462;2023-08-07T03:50:51;14.30;99.90
49042;DHT22;34859;51.608;11.462;2023-08-07T03:53:18;14.40;99.90
49042;DHT22;34859;51.608;11.462;2023-08-07T03:55:49;14.30;99.90
49042;DHT22;34859;51.608;11.462;2023-08-07T03:58:17;14.30;99.90
49042;DHT22;34859;51.608;11.462;2023-08-07T04:00:43;14.40;99.90
49042;DHT22;34859;51.608;11.462;2023-08-07T04:03:10;14.30;99.90
49042;DHT22;34859;51.608;11.462;2023-08-07T04:05:37;14.30;99.90
49042;DHT22;34859;51.608;11.462;2023-08-07T04:08:03;14.40;99.90
49042;DHT22;34859;51.608;11.462;2023-08-07T04:10:30;14.40;99.90
49042;DHT22;34859;51.608;11.462;2023-08-07T04:13:17;14.40;99.90
49042;DHT22;34859;51.608;11.462;2023-08-07T04:16:03;14.40;99.90
49042;DHT22;34859;51.608;11.462;2023-08-07T04:18:50;14.50;99.90
49042;DHT22;34859;51.608;11.462;2023-08-07T04:21:37;14.50;99.90
49042;DHT22;34859;51.608;11.462;2023-08-07T04:24:23;14.40;99.90
49042;DHT22;34859;51.608;11.462;2023-08-07T04:27:09;14.50;99.90
49042;DHT22;34859;51.608;11.462;2023-08-07T04:29:37;14.50;99.90
49042;DHT22;34859;51.608;11.462;2023-08-07T04:32:03;14.50;99.90
49042;DHT22;34859;51.608;11.462;2023-08-07T04:34:30;14.50;99.90
49042;DHT22;34859;51.608;11.462;2023-08-07T04:36:59;14.60;99.90
49042;DHT22;34859;51.608;11.462;2023-08-07T04:39:28;14.60;99.90
49042;DHT22;34859;51.608;11.462;2023-08-07T04:41:54;14.60;99.90
49042;DHT22;34859;51.608;11.462;2023-08-07T04:44:21;14.60;99.90
49042;DHT22;34859;51.608;11.462;2023-08-07T04:46:51;14.60;99.90
49042;DHT22;34859;51.608;11.462;2023-08-07T04:49:18;14.60;99.90
49042;DHT22;34859;51.608;11.462;2023-08-07T04:51:44;14.70;99.90
49042;DHT22;34859;51.608;11.462;2023-08-07T04:54:11;14.70;99.90
49042;DHT22;34859;51.608;11.462;2023-08-07T04:56:37;14.70;99.90
49042;DHT22;34859;51.608;11.462;2023-08-07T04:59:04;14.70;99.90
49042;DHT22;34859;51.608;11.462;2023-08-07T05:01:30;14.70;99.90
49042;DHT22;34859;51.608;11.462;2023-08-07T05:03:57;14.80;99.90
49042;DHT22;34859;51.608;11.462;2023-08-07T05:06:24;14.80;99.90
49042;DHT22;34859;51.608;11.462;2023-08-07T05:08:51;14.80;99.90
49042;DHT22;34859;51.608;11.462;2023-08-07T05:11:17;14.80;99.90
49042;DHT22;34859;51.608;11.462;2023-08-07T05:13:47;14.80;99.90
49042;DHT22;34859;51.608;11.462;2023-08-07T05:16:14;14.90;99.90
49042;DHT22;34859;51.608;11.462;2023-08-07T05:18:41;14.90;99.90
49042;DHT22;34859;51.608;11.462;2023-08-07T05:21:10;14.90;99.90
49042;DHT22;34859;51.608;11.462;2023-08-07T05:23:37;15.00;99.90
49042;DHT22;34859;51.608;11.462;2023-08-07T05:26:03;15.00;99.90
49042;DHT22;34859;51.608;11.462;2023-08-07T05:28:32;15.00;99.90
49042;DHT22;34859;51.608;11.462;2023-08-07T05:30:59;15.10;99.90
49042;DHT22;34859;51.608;11.462;2023-08-07T05:33:29;15.10;99.90
49042;DHT22;34859;51.608;11.462;2023-08-07T05:35:59;15.00;99.90
49042;DHT22;34859;51.608;11.462;2023-08-07T05:38:27;15.00;99.90
49042;DHT22;34859;51.608;11.462;2023-08-07T05:40:54;15.00;99.90
49042;DHT22;34859;51.608;11.462;2023-08-07T05:43:21;15.00;99.90
49042;DHT22;34859;51.608;11.462;2023-08-07T05:45:47;15.00;99.90
49042;DHT22;34859;51.608;11.462;2023-08-07T05:48:15;15.00;99.90
49042;DHT22;34859;51.608;11.462;2023-08-07T05:50:42;15.00;99.90
49042;DHT22;34859;51.608;11.462;2023-08-07T05:53:28;15.00;99.90
49042;DHT22;34859;51.608;11.462;2023-08-07T05:56:14;15.00;99.90
49042;DHT22;34859;51.608;11.462;2023-08-07T05:58:41;15.00;99.90
49042;DHT22;34859;51.608;11.462;2023-08-07T06:01:08;15.00;99.90
49042;DHT22;34859;51.608;11.462;2023-08-07T06:03:35;15.00;99.90
49042;DHT22;34859;51.608;11.462;2023-08-07T06:06:01;15.00;99.90
49042;DHT22;34859;51.608;11.462;2023-08-07T06:08:28;15.10;99.90
49042;DHT22;34859;51.608;11.462;2023-08-07T06:10:54;15.10;99.90
49042;DHT22;34859;51.608;11.462;2023-08-07T06:13:21;15.20;99.90
49042;DHT22;34859;51.608;11.462;2023-08-07T06:15:48;15.20;99.90
49042;DHT22;34859;51.608;11.462;2023-08-07T06:18:14;15.20;99.90
49042;DHT22;34859;51.608;11.462;2023-08-07T06:20:41;15.20;99.90
49042;DHT22;34859;51.608;11.462;2023-08-07T06:23:08;15.20;99.90
49042;DHT22;34859;51.608;11.462;2023-08-07T06:25:35;15.20;99.90
49042;DHT22;34859;51.608;11.462;2023-08-07T06:28:02;15.30;99.90
49042;DHT22;34859;51.608;11.462;2023-08-07T06:30:28;15.40;99.90
49042;DHT22;34859;51.608;11.462;2023-08-07T06:32:55;15.40;99.90
49042;DHT22;34859;51.608;11.462;2023-08-07T06:35:22;15.40;99.90
49042;DHT22;34859;51.608;11.462;2023-08-07T06:37:48;15.50;99.90
49042;DHT22;34859;51.608;11.462;2023-08-07T06:40:15;15.60;99.90
49042;DHT22;34859;51.608;11.462;2023-08-07T06:42:42;15.70;99.90
49042;DHT22;34859;51.608;11.462;2023-08-07T06:45:08;15.70;99.90
49042;DHT22;34859;51.608;11.462;2023-08-07T06:47:37;15.90;99.90
49042;DHT22;34859;51.608;11.462;2023-08-07T06:50:04;16.00;99.90
49042;DHT22;34859;51.608;11.462;2023-08-07T06:52:31;16.10;99.90
49042;DHT22;34859;51.608;11.462;2023-08-07T06:54:57;16.10;99.90
49042;DHT22;34859;51.608;11.462;2023-08-07T06:57:24;16.10;99.90
49042;DHT22;34859;51.608;11.462;2023-08-07T06:59:51;16.10;99.90
49042;DHT22;34859;51.608;11.462;2023-08-07T07:02:17;16.10;99.90
49042;DHT22;34859;51.608;11.462;2023-08-07T07:04:44;16.10;99.90
49042;DHT22;34859;51.608;11.462;2023-08-07T07:07:11;16.10;99.90
49042;DHT22;34859;51.608;11.462;2023-08-07T07:09:38;16.10;99.90
49042;DHT22;34859;51.608;11.462;2023-08-07T07:12:04;16.20;99.90
49042;DHT22;34859;51.608;11.462;2023-08-07T07:14:32;16.20;99.90
49042;DHT22;34859;51.608;11.462;2023-08-07T07:16:58;16.20;99.90
49042;DHT22;34859;51.608;11.462;2023-08-07T07:19:25;16.20;99.90
49042;DHT22;34859;51.608;11.462;2023-08-07T07:21:54;16.30;99.90
49042;DHT22;34859;51.608;11.462;2023-08-07T07:24:20;16.30;99.90
49042;DHT22;34859;51.608;11.462;2023-08-07T07:26:47;16.40;99.90
49042;DHT22;34859;51.608;11.462;2023-08-07T07:29:12;16.60;99.90
49042;DHT22;34859;51.608;11.462;2023-08-07T07:31:38;16.70;99.90
49042;DHT22;34859;51.608;11.462;2023-08-07T07:34:03;16.60;99.90
49042;DHT22;34859;51.608;11.462;2023-08-07T07:36:29;16.70;99.90
49042;DHT22;34859;51.608;11.462;2023-08-07T07:38:55;16.60;99.90
49042;DHT22;34859;51.608;11.462;2023-08-07T07:41:21;16.60;99.90
49042;DHT22;34859;51.608;11.462;2023-08-07T07:43:47;16.40;99.90
49042;DHT22;34859;51.608;11.462;2023-08-07T07:46:13;16.40;99.90
49042;DHT22;34859;51.608;11.462;2023-08-07T07:48:38;16.30;99.90
49042;DHT22;34859;51.608;11.462;2023-08-07T07:51:04;16.40;99.90
49042;DHT22;34859;51.608;11.462;2023-08-07T07:53:30;16.30;99.90
49042;DHT22;34859;51.608;11.462;2023-08-07T07:55:57;16.30;99.90
49042;DHT22;34859;51.608;11.462;2023-08-07T07:58:23;16.30;99.90
49042;DHT22;34859;51.608;11.462;2023-08-07T08:00:49;16.30;99.90
49042;DHT22;34859;51.608;11.462;2023-08-07T08:03:14;16.20;99.90
49042;DHT22;34859;51.608;11.462;2023-08-07T08:06:00;16.30;99.90
49042;DHT22;34859;51.608;11.462;2023-08-07T08:08:27;16.30;99.90
49042;DHT22;34859;51.608;11.462;2023-08-07T08:10:53;16.40;99.90
49042;DHT22;34859;51.608;11.462;2023-08-07T08:13:19;16.40;99.90
49042;DHT22;34859;51.608;11.462;2023-08-07T08:15:45;16.40;99.90
49042;DHT22;34859;51.608;11.462;2023-08-07T08:18:11;16.40;99.90
49042;DHT22;34859;51.608;11.462;2023-08-07T08:20:40;16.50;99.90
49042;DHT22;34859;51.608;11.462;2023-08-07T08:23:07;16.60;99.90
49042;DHT22;34859;51.608;11.462;2023-08-07T08:25:33;16.80;99.90
49042;DHT22;34859;51.608;11.462;2023-08-07T08:27:59;17.00;99.90
49042;DHT22;34859;51.608;11.462;2023-08-07T08:30:29;17.20;99.90
49042;DHT22;34859;51.608;11.462;2023-08-07T08:32:55;17.30;99.90
49042;DHT22;34859;51.608;11.462;2023-08-07T08:35:20;17.40;99.90
49042;DHT22;34859;51.608;11.462;2023-08-07T08:37:49;17.50;99.90
49042;DHT22;34859;51.608;11.462;2023-08-07T08:40:17;17.60;99.90
49042;DHT22;34859;51.608;11.462;2023-08-07T08:42:44;17.60;99.90
49042;DHT22;34859;51.608;11.462;2023-08-07T08:45:13;17.60;99.90
49042;DHT22;34859;51.608;11.462;2023-08-07T08:47:39;17.70;99.90
49042;DHT22;34859;51.608;11.462;2023-08-07T08:50:08;17.70;99.90
49042;DHT22;34859;51.608;11.462;2023-08-07T08:52:35;17.60;99.90
49042;DHT22;34859;51.608;11.462;2023-08-07T08:55:02;17.70;99.90
49042;DHT22;34859;51.608;11.462;2023-08-07T08:57:30;17.70;99.90
49042;DHT22;34859;51.608;11.462;2023-08-07T08:59:57;17.50;99.90
49042;DHT22;34859;51.608;11.462;2023-08-07T09:02:23;17.50;99.90
49042;DHT22;34859;51.608;11.462;2023-08-07T09:04:50;17.30;99.90
49042;DHT22;34859;51.608;11.462;2023-08-07T09:07:17;17.20;99.90
49042;DHT22;34859;51.608;11.462;2023-08-07T09:09:45;17.10;99.90
49042;DHT22;34859;51.608;11.462;2023-08-07T09:12:14;17.10;99.90
49042;DHT22;34859;51.608;11.462;2023-08-07T09:14:41;17.10;99.90
49042;DHT22;34859;51.608;11.462;2023-08-07T09:17:09;17.00;99.90
49042;DHT22;34859;51.608;11.462;2023-08-07T09:19:37;17.00;99.90
49042;DHT22;34859;51.608;11.462;2023-08-07T09:22:03;17.00;99.90
49042;DHT22;34859;51.608;11.462;2023-08-07T09:24:29;16.90;99.90
49042;DHT22;34859;51.608;11.462;2023-08-07T09:26:55;16.90;99.90
49042;DHT22;34859;51.608;11.462;2023-08-07T09:29:21;16.90;99.90
49042;DHT22;34859;51.608;11.462;2023-08-07T09:32:08;17.00;99.90
49042;DHT22;34859;51.608;11.462;2023-08-07T09:34:34;17.30;99.90
49042;DHT22;34859;51.608;11.462;2023-08-07T09:37:02;17.40;99.90
49042;DHT22;34859;51.608;11.462;2023-08-07T09:39:30;17.70;99.90
49042;DHT22;34859;51.608;11.462;2023-08-07T09:41:57;17.60;99.90
49042;DHT22;34859;51.608;11.462;2023-08-07T09:44:22;17.60;99.90
49042;DHT22;34859;51.608;11.462;2023-08-07T09:46:48;17.70;99.90
49042;DHT22;34859;51.608;11.462;2023-08-07T09:49:14;17.70;99.90
49042;DHT22;34859;51.608;11.462;2023-08-07T09:51:46;17.60;99.90
49042;DHT22;34859;51.608;11.462;2023-08-07T09:54:12;17.60;99.90
49042;DHT22;34859;51.608;11.462;2023-08-07T09:56:43;17.50;99.90
49042;DHT22;34859;51.608;11.462;2023-08-07T09:59:08;17.40;99.90
49042;DHT22;34859;51.608;11.462;2023-08-07T10:01:37;17.30;99.90
49042;DHT22;34859;51.608;11.462;2023-08-07T10:04:07;17.20;99.90
49042;DHT22;34859;51.608;11.462;2023-08-07T10:06:33;17.20;99.90
49042;DHT22;34859;51.608;11.462;2023-08-07T10:08:59;17.30;99.90
49042;DHT22;34859;51.608;11.462;2023-08-07T10:11:28;17.40;99.90
49042;DHT22;34859;51.608;11.462;2023-08-07T10:13:53;17.50;99.90
49042;DHT22;34859;51.608;11.462;2023-08-07T10:16:22;17.50;99.90
49042;DHT22;34859;51.608;11.462;2023-08-07T10:18:49;17.60;99.90
49042;DHT22;34859;51.608;11.462;2023-08-07T10:21:17;17.90;99.90
49042;DHT22;34859;51.608;11.462;2023-08-07T10:23:43;18.10;99.90
49042;DHT22;34859;51.608;11.462;2023-08-07T10:26:09;18.40;99.90
49042;DHT22;34859;51.608;11.462;2023-08-07T10:28:37;18.50;99.90
49042;DHT22;34859;51.608;11.462;2023-08-07T10:31:04;18.60;99.90
49042;DHT22;34859;51.608;11.462;2023-08-07T10:33:31;18.70;99.90
49042;DHT22;34859;51.608;11.462;2023-08-07T10:35:57;18.60;99.90
49042;DHT22;34859;51.608;11.462;2023-08-07T10:38:25;18.70;99.90
49042;DHT22;34859;51.608;11.462;2023-08-07T10:43:28;18.50;99.90
49042;DHT22;34859;51.608;11.462;2023-08-07T10:46:00;18.50;99.90
49042;DHT22;34859;51.608;11.462;2023-08-07T10:48:28;18.50;99.90
49042;DHT22;34859;51.608;11.462;2023-08-07T10:53:21;18.60;99.90
49042;DHT22;34859;51.608;11.462;2023-08-07T10:55:53;18.60;99.90
49042;DHT22;34859;51.608;11.462;2023-08-07T11:00:50;18.70;99.90
49042;DHT22;34859;51.608;11.462;2023-08-07T11:03:26;18.70;99.90
49042;DHT22;34859;51.608;11.462;2023-08-07T11:05:52;18.70;99.90
49042;DHT22;34859;51.608;11.462;2023-08-07T11:08:21;18.60;99.90
49042;DHT22;34859;51.608;11.462;2023-08-07T11:10:47;18.60;99.90
49042;DHT22;34859;51.608;11.462;2023-08-07T11:13:12;18.70;99.90
49042;DHT22;34859;51.608;11.462;2023-08-07T11:15:40;18.70;99.90
49042;DHT22;34859;51.608;11.462;2023-08-07T11:18:07;18.60;99.90
49042;DHT22;34859;51.608;11.462;2023-08-07T11:20:34;18.40;99.90
49042;DHT22;34859;51.608;11.462;2023-08-07T11:22:59;18.30;99.90
49042;DHT22;34859;51.608;11.462;2023-08-07T11:25:25;18.20;99.90
49042;DHT22;34859;51.608;11.462;2023-08-07T11:27:51;18.00;99.90
49042;DHT22;34859;51.608;11.462;2023-08-07T11:30:19;17.90;99.90
49042;DHT22;34859;51.608;11.462;2023-08-07T11:32:47;17.80;99.90
49042;DHT22;34859;51.608;11.462;2023-08-07T11:35:12;17.80;99.90
49042;DHT22;34859;51.608;11.462;2023-08-07T11:37:45;17.80;99.90
49042;DHT22;34859;51.608;11.462;2023-08-07T11:40:11;17.80;99.90
49042;DHT22;34859;51.608;11.462;2023-08-07T11:42:57;17.80;99.90
49042;DHT22;34859;51.608;11.462;2023-08-07T11:45:42;17.50;99.90
49042;DHT22;34859;51.608;11.462;2023-08-07T11:48:29;17.30;99.90
49042;DHT22;34859;51.608;11.462;2023-08-07T11:51:15;17.10;99.90
49042;DHT22;34859;51.608;11.462;2023-08-07T11:53:41;17.10;99.90
49042;DHT22;34859;51.608;11.462;2023-08-07T11:56:08;17.20;99.90
49042;DHT22;34859;51.608;11.462;2023-08-07T11:58:40;17.50;99.90
49042;DHT22;34859;51.608;11.462;2023-08-07T12:01:13;17.70;99.90
49042;DHT22;34859;51.608;11.462;2023-08-07T12:03:53;17.80;99.90
49042;DHT22;34859;51.608;11.462;2023-08-07T12:06:20;17.60;99.90
49042;DHT22;34859;51.608;11.462;2023-08-07T12:08:48;17.50;99.90
49042;DHT22;34859;51.608;11.462;2023-08-07T12:11:14;17.30;99.90
49042;DHT22;34859;51.608;11.462;2023-08-07T12:13:40;17.20;99.90
49042;DHT22;34859;51.608;11.462;2023-08-07T12:16:07;17.10;99.90
49042;DHT22;34859;51.608;11.462;2023-08-07T12:18:34;16.90;99.90
49042;DHT22;34859;51.608;11.462;2023-08-07T12:21:02;16.80;99.90
49042;DHT22;34859;51.608;11.462;2023-08-07T12:23:28;16.80;99.90
49042;DHT22;34859;51.608;11.462;2023-08-07T12:25:54;17.20;99.90
49042;DHT22;34859;51.608;11.462;2023-08-07T12:28:20;17.40;99.90
49042;DHT22;34859;51.608;11.462;2023-08-07T12:30:47;17.50;99.90
49042;DHT22;34859;51.608;11.462;2023-08-07T12:33:18;17.40;99.90
49042;DHT22;34859;51.608;11.462;2023-08-07T12:35:43;17.40;99.90
49042;DHT22;34859;51.608;11.462;2023-08-07T12:38:09;17.50;99.90
49042;DHT22;34859;51.608;11.462;2023-08-07T12:40:37;17.40;99.90
49042;DHT22;34859;51.608;11.462;2023-08-07T12:43:03;17.70;99.90
49042;DHT22;34859;51.608;11.462;2023-08-07T12:45:29;17.70;99.90
49042;DHT22;34859;51.608;11.462;2023-08-07T12:47:55;17.50;99.90
49042;DHT22;34859;51.608;11.462;2023-08-07T12:50:20;17.60;99.90
49042;DHT22;34859;51.608;11.462;2023-08-07T12:52:47;17.80;99.90
49042;DHT22;34859;51.608;11.462;2023-08-07T12:55:12;17.90;99.90
49042;DHT22;34859;51.608;11.462;2023-08-07T12:57:41;17.90;99.90
49042;DHT22;34859;51.608;11.462;2023-08-07T13:00:08;18.00;99.90
49042;DHT22;34859;51.608;11.462;2023-08-07T13:02:42;17.80;99.90
49042;DHT22;34859;51.608;11.462;2023-08-07T13:05:08;17.70;99.90
49042;DHT22;34859;51.608;11.462;2023-08-07T13:07:38;17.30;99.90
49042;DHT22;34859;51.608;11.462;2023-08-07T13:10:07;17.00;99.90
49042;DHT22;34859;51.608;11.462;2023-08-07T13:12:36;16.70;99.90
49042;DHT22;34859;51.608;11.462;2023-08-07T13:15:02;16.40;99.90
49042;DHT22;34859;51.608;11.462;2023-08-07T13:17:28;16.40;99.90
49042;DHT22;34859;51.608;11.462;2023-08-07T13:19:54;16.50;99.90
49042;DHT22;34859;51.608;11.462;2023-08-07T13:22:20;16.50;99.90
49042;DHT22;34859;51.608;11.462;2023-08-07T13:24:47;16.50;99.90
49042;DHT22;34859;51.608;11.462;2023-08-07T13:27:12;16.60;99.90
49042;DHT22;34859;51.608;11.462;2023-08-07T13:29:38;16.70;99.90
49042;DHT22;34859;51.608;11.462;2023-08-07T13:32:04;16.60;99.90
49042;DHT22;34859;51.608;11.462;2023-08-07T13:34:37;16.60;99.90
49042;DHT22;34859;51.608;11.462;2023-08-07T13:37:04;16.60;99.90
49042;DHT22;34859;51.608;11.462;2023-08-07T13:39:30;16.60;99.90
49042;DHT22;34859;51.608;11.462;2023-08-07T13:41:57;16.50;99.90
49042;DHT22;34859;51.608;11.462;2023-08-07T13:44:22;16.50;99.90
49042;DHT22;34859;51.608;11.462;2023-08-07T13:46:49;16.70;99.90
49042;DHT22;34859;51.608;11.462;2023-08-07T13:49:14;16.90;99.90
49042;DHT22;34859;51.608;11.462;2023-08-07T13:51:40;17.00;99.90
49042;DHT22;34859;51.608;11.462;2023-08-07T13:54:10;17.10;99.90
49042;DHT22;34859;51.608;11.462;2023-08-07T13:56:37;17.20;99.90
49042;DHT22;34859;51.608;11.462;2023-08-07T13:59:22;17.40;99.90
49042;DHT22;34859;51.608;11.462;2023-08-07T14:01:48;17.50;99.90
49042;DHT22;34859;51.608;11.462;2023-08-07T14:04:14;17.40;99.90
49042;DHT22;34859;51.608;11.462;2023-08-07T14:06:39;17.40;99.90
49042;DHT22;34859;51.608;11.462;2023-08-07T14:09:07;17.60;99.90
49042;DHT22;34859;51.608;11.462;2023-08-07T14:11:34;17.70;99.90
49042;DHT22;34859;51.608;11.462;2023-08-07T14:14:03;17.90;99.90
49042;DHT22;34859;51.608;11.462;2023-08-07T14:16:28;17.80;99.90
49042;DHT22;34859;51.608;11.462;2023-08-07T14:18:54;17.90;99.90
49042;DHT22;34859;51.608;11.462;2023-08-07T14:21:19;17.90;99.90
49042;DHT22;34859;51.608;11.462;2023-08-07T14:23:47;18.00;99.90
49042;DHT22;34859;51.608;11.462;2023-08-07T14:26:13;18.00;99.90
49042;DHT22;34859;51.608;11.462;2023-08-07T14:28:39;17.90;99.90
49042;DHT22;34859;51.608;11.462;2023-08-07T14:31:08;17.80;99.90
49042;DHT22;34859;51.608;11.462;2023-08-07T14:33:34;17.70;99.90
49042;DHT22;34859;51.608;11.462;2023-08-07T14:35:59;17.70;99.90
49042;DHT22;34859;51.608;11.462;2023-08-07T14:38:31;17.60;99.90
49042;DHT22;34859;51.608;11.462;2023-08-07T14:40:57;17.60;99.90
49042;DHT22;34859;51.608;11.462;2023-08-07T14:43:25;17.60;99.90
49042;DHT22;34859;51.608;11.462;2023-08-07T14:45:54;17.90;99.90
49042;DHT22;34859;51.608;11.462;2023-08-07T14:48:20;18.20;99.90
49042;DHT22;34859;51.608;11.462;2023-08-07T14:50:47;18.30;99.90
49042;DHT22;34859;51.608;11.462;2023-08-07T14:53:12;18.40;99.90
49042;DHT22;34859;51.608;11.462;2023-08-07T14:55:40;18.50;99.90
49042;DHT22;34859;51.608;11.462;2023-08-07T14:58:09;18.20;99.90
49042;DHT22;34859;51.608;11.462;2023-08-07T15:00:37;17.90;99.90
49042;DHT22;34859;51.608;11.462;2023-08-07T15:03:02;17.80;99.90
49042;DHT22;34859;51.608;11.462;2023-08-07T15:05:29;17.70;99.90
49042;DHT22;34859;51.608;11.462;2023-08-07T15:07:54;17.60;99.90
49042;DHT22;34859;51.608;11.462;2023-08-07T15:10:20;17.50;99.90
49042;DHT22;34859;51.608;11.462;2023-08-07T15:12:47;17.50;99.90
49042;DHT22;34859;51.608;11.462;2023-08-07T15:15:13;17.40;99.90
49042;DHT22;34859;51.608;11.462;2023-08-07T15:17:38;17.30;99.90
49042;DHT22;34859;51.608;11.462;2023-08-07T15:20:04;17.30;99.90
49042;DHT22;34859;51.608;11.462;2023-08-07T15:22:30;17.20;99.90
49042;DHT22;34859;51.608;11.462;2023-08-07T15:24:57;17.10;99.90
49042;DHT22;34859;51.608;11.462;2023-08-07T15:27:23;17.00;99.90